This is the latest recevied weather packets stored in our database for station/object K0WXC-1. If no packets are shown the sender has not sent any weather packets the latest 10 day(s).
| Time | Temp. | Humidity | Pressure | Rain* | Wind** | Luminosity | Snow |
|---|---|---|---|---|---|---|---|
| 1777248268 | 21.67° C | 51% | 995.4 hPa | 0 mm | 2.24 m/s, 102° | - | - |
| 1777248208 | 21.67° C | 51% | 995.4 hPa | 0 mm | 2.24 m/s, 102° | - | - |
| 1777248148 | 21.67° C | 51% | 995.4 hPa | 0 mm | 2.24 m/s, 102° | - | - |
| 1777248088 | 21.67° C | 51% | 995.4 hPa | 0 mm | 2.24 m/s, 102° | - | - |
| 1777248028 | 21.67° C | 50% | 995.4 hPa | 0 mm | 3.58 m/s, 126° | - | - |
| 1777247968 | 21.67° C | 50% | 995.4 hPa | 0 mm | 3.58 m/s, 126° | - | - |
| 1777247908 | 21.67° C | 50% | 995.4 hPa | 0 mm | 3.58 m/s, 126° | - | - |
| 1777247848 | 21.67° C | 50% | 995.4 hPa | 0 mm | 3.58 m/s, 126° | - | - |
| 1777247789 | 21.67° C | 50% | 995.4 hPa | 0 mm | 3.58 m/s, 126° | - | - |
| 1777247728 | 22.22° C | 50% | 995.6 hPa | 0 mm | 1.79 m/s, 110° | - | - |
| 1777247668 | 22.22° C | 50% | 995.6 hPa | 0 mm | 1.79 m/s, 110° | - | - |
| 1777247608 | 22.22° C | 50% | 995.6 hPa | 0 mm | 1.79 m/s, 110° | - | - |
| 1777247548 | 22.22° C | 50% | 995.6 hPa | 0 mm | 1.79 m/s, 110° | - | - |
| 1777247488 | 22.22° C | 50% | 995.6 hPa | 0 mm | 1.79 m/s, 110° | - | - |
| 1777247428 | 22.22° C | 49% | 995.8 hPa | 0 mm | 0.89 m/s, 85° | - | - |
| 1777247368 | 22.22° C | 49% | 995.8 hPa | 0 mm | 0.89 m/s, 85° | - | - |
| 1777247308 | 22.22° C | 49% | 995.8 hPa | 0 mm | 0.89 m/s, 85° | - | - |
| 1777247248 | 22.22° C | 49% | 995.8 hPa | 0 mm | 0.89 m/s, 85° | - | - |
| 1777247188 | 22.22° C | 49% | 995.8 hPa | 0 mm | 0.89 m/s, 85° | - | - |
| 1777247128 | 22.22° C | 48% | 995.7 hPa | 0 mm | 1.79 m/s, 111° | - | - |
| 1777247068 | 22.22° C | 48% | 995.7 hPa | 0 mm | 1.79 m/s, 111° | - | - |
| 1777247008 | 22.22° C | 48% | 995.7 hPa | 0 mm | 1.79 m/s, 111° | - | - |
| 1777246948 | 22.22° C | 48% | 995.7 hPa | 0 mm | 1.79 m/s, 111° | - | - |
| 1777246888 | 22.22° C | 48% | 995.7 hPa | 0 mm | 1.79 m/s, 111° | - | - |
| 1777246828 | 22.22° C | 48% | 995.7 hPa | 0 mm | 2.68 m/s, 128° | - | - |
* Rain latest hour (hover to see other rain measurements)
** Current wind speed in m/s (hover to see current wind gust speed)